Time;durP1;ratioP1;P1;durP2;ratioP2;P2;SDS_P1;SDS_P2;PMS_P1;PMS_P2;Temp;Humidity;BMP_temperature;BMP_pressure;BME280_temperature;BME280_humidity;BME280_pressure;Samples;Min_cycle;Max_cycle;Signal;HPM_P1;HPM_P2
2023/08/03 00:01:21;;;;;;;12.45;4.18;;;;;;;;;;6243068;28;20060;-74
2023/08/03 00:04:23;;;;;;;8.13;3.53;;;;;;;;;;6242848;28;20064;-74
2023/08/03 00:07:26;;;;;;;9.68;4.22;;;;;;;;;;6241960;28;20063;-74
2023/08/03 00:10:27;;;;;;;14.45;4.60;;;;;;;;;;6245021;28;20053;-73
2023/08/03 00:13:29;;;;;;;10.27;4.35;;;;;;;;;;6241457;28;20064;-74
2023/08/03 00:16:30;;;;;;;9.35;3.97;;;;;;;;;;6242604;28;20172;-74
2023/08/03 00:19:32;;;;;;;7.95;3.65;;;;;;;;;;6242254;28;20049;-71
2023/08/03 00:22:35;;;;;;;9.40;3.45;;;;;;;;;;6245080;28;20046;-75
2023/08/03 00:25:37;;;;;;;8.48;3.72;;;;;;;;;;6240578;28;20053;-73
2023/08/03 00:28:38;;;;;;;12.00;4.30;;;;;;;;;;6243416;28;20046;-73
2023/08/03 00:31:40;;;;;;;9.60;4.15;;;;;;;;;;6239007;28;20380;-75
2023/08/03 00:34:41;;;;;;;12.85;3.88;;;;;;;;;;6243842;28;20060;-73
2023/08/03 00:37:44;;;;;;;15.60;4.65;;;;;;;;;;6241877;28;20041;-75
2023/08/03 00:40:45;;;;;;;9.18;4.40;;;;;;;;;;6241547;28;20704;-74
2023/08/03 00:43:47;;;;;;;8.50;3.90;;;;;;;;;;6239435;28;20064;-75
2023/08/03 00:46:48;;;;;;;15.05;4.78;;;;;;;;;;6238983;28;20053;-73
2023/08/03 00:49:50;;;;;;;10.77;3.90;;;;;;;;;;6239882;28;20155;-74
2023/08/03 00:52:53;;;;;;;9.65;3.97;;;;;;;;;;6240521;28;20057;-74
2023/08/03 00:55:54;;;;;;;9.30;4.22;;;;;;;;;;6240782;28;20057;-74
2023/08/03 00:58:55;;;;;;;7.97;3.97;;;;;;;;;;6240591;28;20345;-75
2023/08/03 01:01:57;;;;;;;8.27;3.55;;;;;;;;;;6240794;28;20313;-76
2023/08/03 01:04:58;;;;;;;8.40;4.68;;;;;;;;;;6239282;28;21376;-76
2023/08/03 01:08:01;;;;;;;9.27;3.88;;;;;;;;;;6245680;28;20057;-75
2023/08/03 01:11:03;;;;;;;9.20;3.90;;;;;;;;;;6241118;28;20073;-74
2023/08/03 01:14:04;;;;;;;11.57;4.63;;;;;;;;;;6245195;28;20053;-75
2023/08/03 01:17:06;;;;;;;7.95;3.70;;;;;;;;;;6240233;28;20370;-75
2023/08/03 01:20:08;;;;;;;7.80;4.22;;;;;;;;;;6241884;28;20057;-76
2023/08/03 01:23:12;;;;;;;12.70;4.32;;;;;;;;;;6242828;28;20061;-75
2023/08/03 01:26:13;;;;;;;8.88;3.90;;;;;;;;;;6241181;28;20061;-75
2023/08/03 01:29:15;;;;;;;8.07;4.07;;;;;;;;;;6241985;28;20061;-76
2023/08/03 01:32:17;;;;;;;9.32;3.78;;;;;;;;;;6241855;28;20091;-74
2023/08/03 01:35:18;;;;;;;11.98;4.30;;;;;;;;;;6238305;28;20048;-75
2023/08/03 01:38:21;;;;;;;16.23;4.30;;;;;;;;;;6238861;28;20057;-73
2023/08/03 01:41:23;;;;;;;8.90;4.45;;;;;;;;;;6239479;28;20058;-73
2023/08/03 01:44:26;;;;;;;8.75;4.22;;;;;;;;;;6241601;28;20068;-73
2023/08/03 01:47:27;;;;;;;10.60;3.70;;;;;;;;;;6238022;28;20171;-74
2023/08/03 01:50:29;;;;;;;9.32;4.22;;;;;;;;;;6240091;28;20053;-75
2023/08/03 01:53:32;;;;;;;6.88;3.63;;;;;;;;;;6240631;28;20053;-75
2023/08/03 01:56:33;;;;;;;10.98;4.05;;;;;;;;;;6240476;28;20057;-74
2023/08/03 01:59:35;;;;;;;17.35;4.88;;;;;;;;;;6241524;28;20237;-75
2023/08/03 02:02:36;;;;;;;10.38;3.95;;;;;;;;;;6239449;28;20069;-73
2023/08/03 02:05:38;;;;;;;12.20;4.15;;;;;;;;;;6239102;28;20057;-73
2023/08/03 02:08:40;;;;;;;9.35;4.07;;;;;;;;;;6241899;28;20056;-75
2023/08/03 02:11:42;;;;;;;8.82;3.78;;;;;;;;;;6240934;28;20377;-75
2023/08/03 02:14:43;;;;;;;10.43;4.28;;;;;;;;;;6242590;28;20054;-75
2023/08/03 02:17:45;;;;;;;7.60;4.10;;;;;;;;;;6245095;28;20096;-75
2023/08/03 02:20:47;;;;;;;12.80;4.15;;;;;;;;;;6243585;28;20444;-75
2023/08/03 02:23:50;;;;;;;12.23;4.18;;;;;;;;;;6248157;28;20117;-76
2023/08/03 02:26:51;;;;;;;11.82;3.97;;;;;;;;;;6246536;28;20045;-74
2023/08/03 02:29:53;;;;;;;11.50;4.07;;;;;;;;;;6243778;28;20120;-75
2023/08/03 02:32:54;;;;;;;8.95;4.15;;;;;;;;;;6245346;28;20064;-75
2023/08/03 02:35:55;;;;;;;10.98;4.65;;;;;;;;;;6241421;28;20042;-75
2023/08/03 02:38:58;;;;;;;8.70;4.40;;;;;;;;;;6241720;28;20058;-76
2023/08/03 02:42:00;;;;;;;8.55;4.32;;;;;;;;;;6243171;28;20048;-75
2023/08/03 02:45:01;;;;;;;9.30;4.07;;;;;;;;;;6247991;28;20233;-75
2023/08/03 02:48:03;;;;;;;8.95;4.30;;;;;;;;;;6247342;28;20065;-75
2023/08/03 02:51:04;;;;;;;9.50;3.88;;;;;;;;;;6241388;28;20091;-75
2023/08/03 02:54:07;;;;;;;12.93;4.55;;;;;;;;;;6244917;28;20042;-76
2023/08/03 02:57:08;;;;;;;10.50;4.32;;;;;;;;;;6244730;28;20056;-74
2023/08/03 03:00:10;;;;;;;10.82;3.95;;;;;;;;;;6245245;28;20052;-75
2023/08/03 03:03:12;;;;;;;9.50;3.78;;;;;;;;;;6243428;28;20081;-75
2023/08/03 03:06:13;;;;;;;10.50;4.07;;;;;;;;;;6243276;28;20333;-76
2023/08/03 03:09:16;;;;;;;11.25;4.72;;;;;;;;;;6243069;28;20081;-75
2023/08/03 03:12:17;;;;;;;9.48;4.18;;;;;;;;;;6246681;28;20194;-75
2023/08/03 03:15:19;;;;;;;10.13;5.03;;;;;;;;;;6242870;28;20046;-75
2023/08/03 03:18:20;;;;;;;9.48;4.25;;;;;;;;;;6241975;28;20053;-73
2023/08/03 03:21:22;;;;;;;12.85;4.43;;;;;;;;;;6242881;28;20057;-75
2023/08/03 03:24:25;;;;;;;10.05;4.43;;;;;;;;;;6244163;28;20101;-74
2023/08/03 03:27:26;;;;;;;8.63;4.10;;;;;;;;;;6245143;28;20225;-74
2023/08/03 03:30:27;;;;;;;8.93;4.55;;;;;;;;;;6244497;28;20368;-74
2023/08/03 03:33:29;;;;;;;9.30;4.30;;;;;;;;;;6243214;28;20545;-75
2023/08/03 03:36:30;;;;;;;11.05;4.47;;;;;;;;;;6246568;28;20349;-74
2023/08/03 03:39:33;;;;;;;13.98;4.60;;;;;;;;;;6242352;28;20340;-74
2023/08/03 03:42:34;;;;;;;8.15;3.97;;;;;;;;;;6242892;28;20071;-74
2023/08/03 03:45:36;;;;;;;8.68;4.10;;;;;;;;;;6245092;28;20384;-75
2023/08/03 03:48:37;;;;;;;10.05;4.30;;;;;;;;;;6241853;28;20050;-74
2023/08/03 03:51:39;;;;;;;14.82;4.22;;;;;;;;;;6242046;28;20333;-76
2023/08/03 03:54:42;;;;;;;10.90;4.95;;;;;;;;;;6244645;28;20057;-73
2023/08/03 03:57:43;;;;;;;9.02;4.82;;;;;;;;;;6243557;28;20057;-74
2023/08/03 04:00:44;;;;;;;9.00;4.18;;;;;;;;;;6245048;28;20057;-73
2023/08/03 04:03:46;;;;;;;8.95;4.57;;;;;;;;;;6241234;28;20257;-74
2023/08/03 04:06:47;;;;;;;13.50;4.53;;;;;;;;;;6243000;28;20064;-75
2023/08/03 04:09:50;;;;;;;10.85;4.35;;;;;;;;;;6240222;28;20058;-75
2023/08/03 04:12:51;;;;;;;9.30;4.40;;;;;;;;;;6242897;28;20057;-75
2023/08/03 04:15:53;;;;;;;7.95;4.22;;;;;;;;;;6244732;28;20057;-76
2023/08/03 04:18:54;;;;;;;11.68;4.93;;;;;;;;;;6242430;28;20057;-75
2023/08/03 04:21:56;;;;;;;9.82;4.05;;;;;;;;;;6241294;28;20049;-74
2023/08/03 04:24:58;;;;;;;7.53;4.40;;;;;;;;;;6240435;28;20285;-74
2023/08/03 04:28:00;;;;;;;8.57;4.00;;;;;;;;;;6245384;28;20049;-74
2023/08/03 04:31:01;;;;;;;10.88;4.28;;;;;;;;;;6242279;28;20058;-76
2023/08/03 04:34:03;;;;;;;9.57;4.22;;;;;;;;;;6241380;28;20206;-74
2023/08/03 04:37:04;;;;;;;11.90;5.07;;;;;;;;;;6239469;28;20097;-73
2023/08/03 04:40:08;;;;;;;8.48;4.03;;;;;;;;;;6242850;28;20053;-74
2023/08/03 04:43:10;;;;;;;11.43;4.80;;;;;;;;;;6244078;28;20051;-75
2023/08/03 04:46:11;;;;;;;12.38;3.88;;;;;;;;;;6247325;28;20242;-75
2023/08/03 04:49:13;;;;;;;14.50;4.35;;;;;;;;;;6240187;28;20054;-74
2023/08/03 04:52:14;;;;;;;10.63;4.75;;;;;;;;;;6242748;28;20059;-75
2023/08/03 04:55:17;;;;;;;15.30;4.63;;;;;;;;;;6241468;28;20061;-75
2023/08/03 04:58:19;;;;;;;8.52;4.20;;;;;;;;;;6242161;28;20053;-75
2023/08/03 05:01:20;;;;;;;11.02;4.22;;;;;;;;;;6239017;28;20064;-74
2023/08/03 05:04:22;;;;;;;9.20;4.32;;;;;;;;;;6240163;28;20049;-76
2023/08/03 05:07:23;;;;;;;9.07;4.13;;;;;;;;;;6240852;28;20069;-74
2023/08/03 05:10:26;;;;;;;16.30;4.75;;;;;;;;;;6239611;28;20063;-76
2023/08/03 05:13:27;;;;;;;10.20;4.30;;;;;;;;;;6241957;28;20053;-75
2023/08/03 05:16:29;;;;;;;12.50;4.32;;;;;;;;;;6239560;28;20048;-75
2023/08/03 05:19:30;;;;;;;7.60;4.28;;;;;;;;;;6242442;28;20050;-74
2023/08/03 05:22:32;;;;;;;7.60;3.83;;;;;;;;;;6241559;28;20054;-75
2023/08/03 05:25:35;;;;;;;9.90;4.13;;;;;;;;;;6242321;28;20128;-76
2023/08/03 05:28:36;;;;;;;9.40;4.32;;;;;;;;;;6240177;28;20072;-75
2023/08/03 05:31:37;;;;;;;13.25;4.57;;;;;;;;;;6235334;28;20049;-75
2023/08/03 05:34:39;;;;;;;8.30;3.97;;;;;;;;;;6241317;28;20052;-74
2023/08/03 05:37:41;;;;;;;11.45;4.07;;;;;;;;;;6240284;28;20054;-74
2023/08/03 05:40:43;;;;;;;10.05;4.22;;;;;;;;;;6239505;28;20053;-75
2023/08/03 05:43:46;;;;;;;10.38;4.47;;;;;;;;;;6214867;28;20069;-75
2023/08/03 05:46:47;;;;;;;13.30;4.47;;;;;;;;;;6241581;28;20064;-74
2023/08/03 05:49:49;;;;;;;13.68;4.60;;;;;;;;;;6240175;28;20045;-75
2023/08/03 05:52:50;;;;;;;13.30;4.75;;;;;;;;;;6241528;28;20049;-76
2023/08/03 05:55:53;;;;;;;13.00;5.32;;;;;;;;;;6239189;28;20057;-76
2023/08/03 05:58:54;;;;;;;13.43;4.40;;;;;;;;;;6238691;28;20395;-76
2023/08/03 06:01:56;;;;;;;13.85;5.20;;;;;;;;;;6241192;28;20049;-77
2023/08/03 06:04:57;;;;;;;11.00;4.78;;;;;;;;;;6240710;28;20065;-75
2023/08/03 06:07:59;;;;;;;9.57;4.30;;;;;;;;;;6239289;28;20053;-78
2023/08/03 06:11:03;;;;;;;17.27;4.97;;;;;;;;;;6241842;28;20222;-77
2023/08/03 06:14:05;;;;;;;12.68;4.88;;;;;;;;;;6241183;28;20042;-77
2023/08/03 06:17:08;;;;;;;10.35;4.70;;;;;;;;;;6242517;28;20550;-76
2023/08/03 06:20:12;;;;;;;9.10;4.55;;;;;;;;;;6237233;28;20058;-77
2023/08/03 06:23:17;;;;;;;9.98;4.75;;;;;;;;;;6238668;28;20049;-76
2023/08/03 06:26:20;;;;;;;10.95;3.83;;;;;;;;;;6242550;28;20053;-76
2023/08/03 06:29:21;;;;;;;14.82;4.35;;;;;;;;;;6240865;28;20057;-77
2023/08/03 06:32:24;;;;;;;15.48;4.47;;;;;;;;;;6237714;28;20118;-76
2023/08/03 06:35:33;;;;;;;7.68;4.15;;;;;;;;;;6240829;28;20088;-77
2023/08/03 06:38:36;;;;;;;9.77;4.15;;;;;;;;;;6241587;28;20107;-76
2023/08/03 06:41:39;;;;;;;12.95;4.35;;;;;;;;;;6240800;28;20050;-76
2023/08/03 06:44:40;;;;;;;10.00;4.25;;;;;;;;;;6242547;28;20056;-75
2023/08/03 06:47:41;;;;;;;9.55;4.10;;;;;;;;;;6242130;28;20061;-77
2023/08/03 06:50:43;;;;;;;9.75;4.47;;;;;;;;;;6242530;28;20056;-76
2023/08/03 06:53:46;;;;;;;10.70;4.32;;;;;;;;;;6237433;28;20166;-76
2023/08/03 06:56:47;;;;;;;;;;;;;;;;;;6238680;28;20045;-79
2023/08/03 06:59:50;;;;;;;16.77;4.78;;;;;;;;;;6242131;28;19917;-78
2023/08/03 07:02:52;;;;;;;10.90;4.30;;;;;;;;;;6238867;28;20237;-77
2023/08/03 07:05:54;;;;;;;6.90;4.13;;;;;;;;;;6241282;28;20087;-77
2023/08/03 07:08:55;;;;;;;9.35;3.95;;;;;;;;;;6238091;28;20054;-77
2023/08/03 07:11:56;;;;;;;11.18;4.18;;;;;;;;;;6240020;28;20057;-78
2023/08/03 07:14:59;;;;;;;11.35;4.15;;;;;;;;;;6238895;28;20077;-78
2023/08/03 07:18:02;;;;;;;8.80;3.88;;;;;;;;;;6240553;28;20065;-77
2023/08/03 07:21:03;;;;;;;12.25;4.93;;;;;;;;;;6238696;28;20057;-77
2023/08/03 07:24:06;;;;;;;9.93;3.88;;;;;;;;;;6237701;28;20053;-78
2023/08/03 07:27:07;;;;;;;10.07;4.72;;;;;;;;;;6236874;28;20052;-78
2023/08/03 07:30:11;;;;;;;11.50;4.47;;;;;;;;;;6236745;28;20065;-77
2023/08/03 07:33:12;;;;;;;10.23;3.75;;;;;;;;;;6239620;28;20054;-77
2023/08/03 07:36:17;;;;;;;10.82;4.30;;;;;;;;;;6240770;28;20061;-78
2023/08/03 07:39:18;;;;;;;8.73;3.67;;;;;;;;;;6239030;28;20250;-77
2023/08/03 07:42:20;;;;;;;10.27;4.57;;;;;;;;;;6241877;28;20372;-77
2023/08/03 07:45:23;;;;;;;12.77;3.95;;;;;;;;;;6245797;28;20064;-77
2023/08/03 07:48:24;;;;;;;;;;;;;;;;;;6242394;28;20084;-77
2023/08/03 07:51:26;;;;;;;7.68;4.15;;;;;;;;;;6244090;28;19971;-77
2023/08/03 07:54:27;;;;;;;11.55;4.60;;;;;;;;;;6244869;28;20071;-77
2023/08/03 07:57:28;;;;;;;11.82;4.28;;;;;;;;;;6241602;28;20057;-77
2023/08/03 08:00:31;;;;;;;9.57;4.63;;;;;;;;;;6245020;28;20050;-77
2023/08/03 08:03:33;;;;;;;7.13;4.00;;;;;;;;;;6243127;28;20076;-77
2023/08/03 08:06:34;;;;;;;11.68;4.40;;;;;;;;;;6241891;28;20363;-77
2023/08/03 08:09:35;;;;;;;14.25;4.68;;;;;;;;;;6242817;28;20236;-77
2023/08/03 08:12:37;;;;;;;12.65;3.92;;;;;;;;;;6243581;28;20099;-77
2023/08/03 08:15:40;;;;;;;9.85;4.82;;;;;;;;;;6240204;28;20057;-76
2023/08/03 08:18:41;;;;;;;;;;;;;;;;;;6242613;28;20069;-76
2023/08/03 08:21:42;;;;;;;8.82;3.83;;;;;;;;;;6241790;28;20024;-77
2023/08/03 08:24:44;;;;;;;9.32;4.15;;;;;;;;;;6242760;28;20053;-76
2023/08/03 08:27:45;;;;;;;11.98;4.75;;;;;;;;;;6243535;28;20076;-76
2023/08/03 08:30:48;;;;;;;14.63;4.40;;;;;;;;;;6240419;28;20078;-77
2023/08/03 08:33:50;;;;;;;10.20;4.32;;;;;;;;;;6242258;28;20151;-77
2023/08/03 08:36:55;;;;;;;10.88;5.13;;;;;;;;;;6241188;28;20053;-76
2023/08/03 08:39:56;;;;;;;10.25;3.97;;;;;;;;;;6241396;28;20054;-76
2023/08/03 08:42:58;;;;;;;12.27;4.93;;;;;;;;;;6240312;28;20057;-75
2023/08/03 08:46:01;;;;;;;8.23;4.03;;;;;;;;;;6243396;28;20057;-77
2023/08/03 08:49:02;;;;;;;;;;;;;;;;;;6244163;28;20049;-78
2023/08/03 08:52:04;;;;;;;9.38;3.70;;;;;;;;;;6243640;28;19956;-77
2023/08/03 08:55:12;;;;;;;9.68;4.32;;;;;;;;;;6242548;28;20042;-77
2023/08/03 08:58:13;;;;;;;7.18;3.88;;;;;;;;;;6242808;28;20293;-77
2023/08/03 09:01:16;;;;;;;11.57;3.95;;;;;;;;;;6240344;28;20246;-77
2023/08/03 09:04:30;;;;;;;11.02;4.57;;;;;;;;;;6242648;28;20055;-77
2023/08/03 09:07:33;;;;;;;11.57;4.88;;;;;;;;;;6240517;28;20057;-77
2023/08/03 09:10:47;;;;;;;8.02;4.18;;;;;;;;;;6240910;28;20321;-77
2023/08/03 09:13:49;;;;;;;10.38;3.78;;;;;;;;;;6244425;28;20042;-77
2023/08/03 09:16:52;;;;;;;7.40;4.33;;;;;;;;;;6241210;28;20053;-76
2023/08/03 09:19:53;;;;;;;;;;;;;;;;;;6240813;28;20072;-76
2023/08/03 09:22:55;;;;;;;5.47;3.28;;;;;;;;;;6240974;28;19925;-77
2023/08/03 09:25:56;;;;;;;9.30;4.25;;;;;;;;;;6242699;28;20052;-76
2023/08/03 09:28:57;;;;;;;6.22;3.40;;;;;;;;;;6240422;28;20050;-76
2023/08/03 09:32:04;;;;;;;8.73;4.13;;;;;;;;;;6241819;28;20337;-77
2023/08/03 09:35:16;;;;;;;9.05;4.18;;;;;;;;;;6240288;28;20058;-77
2023/08/03 09:38:24;;;;;;;6.70;3.97;;;;;;;;;;6238992;28;20054;-77
2023/08/03 09:41:32;;;;;;;10.05;4.30;;;;;;;;;;6239744;28;20230;-76
2023/08/03 09:44:34;;;;;;;8.20;3.90;;;;;;;;;;6239393;28;20057;-75
2023/08/03 09:47:38;;;;;;;8.40;3.85;;;;;;;;;;6241972;28;20057;-75
2023/08/03 09:50:40;;;;;;;7.13;3.53;;;;;;;;;;6242487;28;20053;-75
2023/08/03 09:53:43;;;;;;;8.88;3.70;;;;;;;;;;6242033;28;20345;-75
2023/08/03 09:56:52;;;;;;;10.45;4.03;;;;;;;;;;6239682;28;20072;-75
2023/08/03 09:59:58;;;;;;;7.50;4.00;;;;;;;;;;6239103;28;20065;-75
2023/08/03 10:03:04;;;;;;;6.18;3.40;;;;;;;;;;6240629;28;20049;-75
2023/08/03 10:06:08;;;;;;;8.82;3.60;;;;;;;;;;6242150;28;20052;-75
2023/08/03 10:09:10;;;;;;;8.50;4.03;;;;;;;;;;6241905;28;20463;-75
2023/08/03 10:12:16;;;;;;;6.82;3.38;;;;;;;;;;6242390;28;20055;-74
2023/08/03 10:15:17;;;;;;;6.85;3.90;;;;;;;;;;6242706;28;20326;-75
2023/08/03 10:18:21;;;;;;;5.95;3.80;;;;;;;;;;6239021;28;20360;-74
2023/08/03 10:21:22;;;;;;;9.73;3.63;;;;;;;;;;6238407;28;20517;-75
2023/08/03 10:24:24;;;;;;;7.63;3.85;;;;;;;;;;6239334;28;20057;-75
2023/08/03 10:27:25;;;;;;;7.88;3.08;;;;;;;;;;6239478;28;20062;-75
2023/08/03 10:30:49;;;;;;;7.35;3.42;;;;;;;;;;6238103;28;20092;-75
2023/08/03 10:34:15;;;;;;;5.95;3.58;;;;;;;;;;6239617;28;20375;-75
2023/08/03 10:37:18;;;;;;;5.35;3.25;;;;;;;;;;6239357;28;20058;-75
2023/08/03 10:40:22;;;;;;;8.50;3.25;;;;;;;;;;6238026;28;20049;-75
2023/08/03 10:43:24;;;;;;;6.78;3.20;;;;;;;;;;6241696;28;20064;-77
2023/08/03 10:46:31;;;;;;;4.95;3.13;;;;;;;;;;6238367;28;20283;-76
2023/08/03 10:49:52;;;;;;;7.72;3.33;;;;;;;;;;6239883;28;20050;-74
2023/08/03 10:52:55;;;;;;;9.30;4.03;;;;;;;;;;6238117;28;20053;-75
2023/08/03 10:56:07;;;;;;;8.50;4.00;;;;;;;;;;6237232;28;20045;-75
2023/08/03 10:59:08;;;;;;;;;;;;;;;;;;6238736;28;20077;-76
2023/08/03 11:02:11;;;;;;;7.30;4.40;;;;;;;;;;6239343;28;19924;-75
2023/08/03 11:05:12;;;;;;;10.27;4.20;;;;;;;;;;6240077;28;20060;-76
2023/08/03 11:08:17;;;;;;;8.23;3.90;;;;;;;;;;6238027;28;20073;-76
2023/08/03 11:11:22;;;;;;;9.23;3.85;;;;;;;;;;6240061;28;20502;-76
2023/08/03 11:14:23;;;;;;;7.50;3.28;;;;;;;;;;6238139;28;20046;-76
2023/08/03 11:17:26;;;;;;;9.23;3.53;;;;;;;;;;6243136;28;20076;-76
2023/08/03 11:20:27;;;;;;;8.48;3.60;;;;;;;;;;6243273;28;20062;-76
2023/08/03 11:23:31;;;;;;;5.30;3.00;;;;;;;;;;6244180;28;20049;-76
2023/08/03 11:26:33;;;;;;;5.85;3.40;;;;;;;;;;6244220;28;20135;-75
2023/08/03 11:29:35;;;;;;;7.43;3.20;;;;;;;;;;6241119;28;20359;-75
2023/08/03 11:32:38;;;;;;;;;;;;;;;;;;6241908;28;20413;-76
2023/08/03 11:35:40;;;;;;;8.20;3.58;;;;;;;;;;6243876;28;19968;-76
2023/08/03 11:38:42;;;;;;;8.75;3.75;;;;;;;;;;6243521;28;20061;-75
2023/08/03 11:41:45;;;;;;;6.97;3.53;;;;;;;;;;6241903;28;20156;-75
2023/08/03 11:44:47;;;;;;;5.20;3.17;;;;;;;;;;6243738;28;20385;-75
2023/08/03 11:47:49;;;;;;;6.07;3.80;;;;;;;;;;6243865;28;20056;-75
2023/08/03 11:50:50;;;;;;;5.63;3.45;;;;;;;;;;6240461;28;20061;-77
2023/08/03 11:53:53;;;;;;;7.53;3.70;;;;;;;;;;6242587;28;20094;-75
2023/08/03 11:56:54;;;;;;;7.55;3.28;;;;;;;;;;6243341;28;20052;-75
2023/08/03 11:59:55;;;;;;;7.13;3.70;;;;;;;;;;6242996;28;20045;-75
2023/08/03 12:02:56;;;;;;;5.68;3.40;;;;;;;;;;6242559;28;20675;-77
2023/08/03 12:06:01;;;;;;;6.05;3.22;;;;;;;;;;6242188;28;20050;-74
2023/08/03 12:09:07;;;;;;;6.07;3.50;;;;;;;;;;6241842;28;20223;-75
2023/08/03 12:12:10;;;;;;;8.57;3.20;;;;;;;;;;6245540;28;20139;-75
2023/08/03 12:15:11;;;;;;;5.97;3.40;;;;;;;;;;6244083;28;20056;-75
2023/08/03 12:18:13;;;;;;;4.63;3.13;;;;;;;;;;6241837;28;20049;-75
2023/08/03 12:21:14;;;;;;;10.60;3.38;;;;;;;;;;6243475;28;20057;-75
2023/08/03 12:24:17;;;;;;;8.15;3.67;;;;;;;;;;6242567;28;20068;-76
2023/08/03 12:27:18;;;;;;;7.35;3.30;;;;;;;;;;6242522;28;20294;-75
2023/08/03 12:30:20;;;;;;;4.43;2.88;;;;;;;;;;6241347;28;20061;-75
2023/08/03 12:33:21;;;;;;;7.40;3.42;;;;;;;;;;6240939;28;20060;-75
2023/08/03 12:36:23;;;;;;;7.18;3.42;;;;;;;;;;6242620;28;20065;-74
2023/08/03 12:39:25;;;;;;;6.63;3.38;;;;;;;;;;6242426;28;20057;-77
2023/08/03 12:42:27;;;;;;;5.53;3.35;;;;;;;;;;6243122;28;20065;-76
2023/08/03 12:45:28;;;;;;;6.65;3.42;;;;;;;;;;6242052;28;20061;-74
2023/08/03 12:48:30;;;;;;;6.57;3.90;;;;;;;;;;6242857;28;20061;-75
2023/08/03 12:51:31;;;;;;;5.68;3.17;;;;;;;;;;6240581;28;20050;-76
2023/08/03 12:54:34;;;;;;;6.13;3.40;;;;;;;;;;6241394;28;20053;-75
2023/08/03 12:57:35;;;;;;;7.28;3.53;;;;;;;;;;6241640;28;20060;-76
2023/08/03 13:00:37;;;;;;;5.07;3.10;;;;;;;;;;6240506;28;20284;-76
2023/08/03 13:03:38;;;;;;;6.20;3.67;;;;;;;;;;6242244;28;20114;-76
2023/08/03 13:06:40;;;;;;;3.70;2.90;;;;;;;;;;6240118;28;20272;-76
2023/08/03 13:09:43;;;;;;;6.72;3.50;;;;;;;;;;6237604;28;20460;-76
2023/08/03 13:12:44;;;;;;;6.43;3.17;;;;;;;;;;6239241;28;20249;-73
2023/08/03 13:15:46;;;;;;;6.57;3.60;;;;;;;;;;6240969;28;20042;-75
2023/08/03 13:18:48;;;;;;;5.53;3.13;;;;;;;;;;6242284;28;20137;-74
2023/08/03 13:21:50;;;;;;;7.03;3.38;;;;;;;;;;6242880;28;20042;-76
2023/08/03 13:24:53;;;;;;;7.28;3.70;;;;;;;;;;6240225;28;20057;-76
2023/08/03 13:27:55;;;;;;;8.95;3.83;;;;;;;;;;6241263;28;20057;-76
2023/08/03 13:30:57;;;;;;;8.38;3.80;;;;;;;;;;6238500;28;20345;-76
2023/08/03 13:33:59;;;;;;;6.80;3.78;;;;;;;;;;6240784;28;20277;-76
2023/08/03 13:37:00;;;;;;;7.43;3.67;;;;;;;;;;6239299;28;20049;-76
2023/08/03 13:40:04;;;;;;;6.73;4.27;;;;;;;;;;6239360;28;20050;-76
2023/08/03 13:43:05;;;;;;;6.20;3.58;;;;;;;;;;6240591;28;20471;-76
2023/08/03 13:46:06;;;;;;;4.68;3.50;;;;;;;;;;6239699;28;20112;-76
2023/08/03 13:49:08;;;;;;;7.40;3.78;;;;;;;;;;6242285;28;20046;-76
2023/08/03 13:52:09;;;;;;;6.37;3.40;;;;;;;;;;6241342;28;20057;-76
2023/08/03 13:55:12;;;;;;;4.73;3.40;;;;;;;;;;6240403;28;20041;-76
2023/08/03 13:58:14;;;;;;;5.93;3.33;;;;;;;;;;6238712;28;20065;-76
2023/08/03 14:01:15;;;;;;;6.40;3.53;;;;;;;;;;6240078;28;20090;-76
2023/08/03 14:04:18;;;;;;;4.30;2.90;;;;;;;;;;6242148;28;20053;-77
2023/08/03 14:07:20;;;;;;;5.75;3.15;;;;;;;;;;6238585;28;20103;-76
2023/08/03 14:10:23;;;;;;;4.25;3.53;;;;;;;;;;6242231;28;20065;-76
2023/08/03 14:13:24;;;;;;;6.72;4.00;;;;;;;;;;6241419;28;20057;-76
2023/08/03 14:16:26;;;;;;;5.95;3.30;;;;;;;;;;6239356;28;20095;-76
2023/08/03 14:19:28;;;;;;;6.10;3.10;;;;;;;;;;6236449;28;20049;-76
2023/08/03 14:22:29;;;;;;;8.00;3.78;;;;;;;;;;6243470;28;20045;-76
2023/08/03 14:25:32;;;;;;;12.18;3.95;;;;;;;;;;6241838;28;20066;-76
2023/08/03 14:28:34;;;;;;;6.05;3.72;;;;;;;;;;6241059;28;20084;-76
2023/08/03 14:31:35;;;;;;;6.68;3.45;;;;;;;;;;6243271;28;20117;-76
2023/08/03 14:34:36;;;;;;;5.43;3.17;;;;;;;;;;6244486;28;20073;-76
2023/08/03 14:37:38;;;;;;;6.37;3.43;;;;;;;;;;6243147;28;20456;-75
2023/08/03 14:40:41;;;;;;;5.00;3.50;;;;;;;;;;6243768;28;20333;-77
2023/08/03 14:43:42;;;;;;;12.43;4.20;;;;;;;;;;6243793;28;20344;-75
2023/08/03 14:46:44;;;;;;;5.87;3.53;;;;;;;;;;6245884;28;20061;-75
2023/08/03 14:49:45;;;;;;;5.53;3.77;;;;;;;;;;6241546;28;20064;-75
2023/08/03 14:52:46;;;;;;;9.77;4.20;;;;;;;;;;6242428;28;20062;-75
2023/08/03 14:55:50;;;;;;;9.27;3.72;;;;;;;;;;6241692;28;20162;-75
2023/08/03 14:58:51;;;;;;;10.75;4.40;;;;;;;;;;6240408;28;20045;-75
2023/08/03 15:01:54;;;;;;;8.55;3.85;;;;;;;;;;6240090;28;20049;-76
2023/08/03 15:04:56;;;;;;;9.70;4.18;;;;;;;;;;6238003;28;20058;-75
2023/08/03 15:07:57;;;;;;;10.47;3.83;;;;;;;;;;6237332;28;20245;-76
2023/08/03 15:11:00;;;;;;;6.50;4.23;;;;;;;;;;6240204;28;20265;-76
2023/08/03 15:14:02;;;;;;;9.07;3.80;;;;;;;;;;6237273;28;20046;-76
2023/08/03 15:17:04;;;;;;;8.95;3.90;;;;;;;;;;6236827;28;20046;-76
2023/08/03 15:20:06;;;;;;;7.75;3.75;;;;;;;;;;6237565;28;20385;-76
2023/08/03 15:23:07;;;;;;;8.95;3.53;;;;;;;;;;6241638;28;20521;-76
2023/08/03 15:26:10;;;;;;;7.82;3.78;;;;;;;;;;6239418;28;20234;-74
2023/08/03 15:29:12;;;;;;;8.60;4.15;;;;;;;;;;6236640;28;20064;-75
2023/08/03 15:32:13;;;;;;;5.80;3.50;;;;;;;;;;6237203;28;20053;-76
2023/08/03 15:35:19;;;;;;;7.70;3.80;;;;;;;;;;6238495;28;20050;-76
2023/08/03 15:38:21;;;;;;;5.88;3.55;;;;;;;;;;6237238;28;20633;-76
2023/08/03 15:41:26;;;;;;;9.77;4.47;;;;;;;;;;6237780;28;20064;-76
2023/08/03 15:44:28;;;;;;;10.65;4.82;;;;;;;;;;6239630;28;20054;-77
2023/08/03 15:47:31;;;;;;;7.95;4.03;;;;;;;;;;6239640;28;20050;-77
2023/08/03 15:50:34;;;;;;;8.95;2.10;;;;;;;;;;6237138;28;20058;-79
2023/08/03 15:53:36;;;;;;;2.88;1.85;;;;;;;;;;6238996;28;20058;-79
2023/08/03 15:56:39;;;;;;;6.37;1.80;;;;;;;;;;6239517;28;20045;-78
2023/08/03 15:59:40;;;;;;;4.53;1.80;;;;;;;;;;6237409;28;20061;-78
2023/08/03 16:02:42;;;;;;;3.57;1.60;;;;;;;;;;6243958;28;20064;-78
2023/08/03 16:05:44;;;;;;;6.68;1.90;;;;;;;;;;6243755;28;20057;-79
2023/08/03 16:08:46;;;;;;;6.17;1.87;;;;;;;;;;6244026;28;20049;-78
2023/08/03 16:11:49;;;;;;;2.83;1.92;;;;;;;;;;6244127;28;20476;-78
2023/08/03 16:14:50;;;;;;;4.32;1.58;;;;;;;;;;6245378;28;20046;-79
2023/08/03 16:17:52;;;;;;;2.65;1.50;;;;;;;;;;6242552;28;20052;-78
2023/08/03 16:20:54;;;;;;;7.30;2.28;;;;;;;;;;6244356;28;20092;-79
2023/08/03 16:23:56;;;;;;;4.30;1.95;;;;;;;;;;6243130;28;20050;-78
2023/08/03 16:26:59;;;;;;;6.47;1.90;;;;;;;;;;6240442;28;20245;-79
2023/08/03 16:30:01;;;;;;;3.85;1.77;;;;;;;;;;6244705;28;20349;-79
2023/08/03 16:33:03;;;;;;;2.90;1.40;;;;;;;;;;6244718;28;20057;-79
2023/08/03 16:36:05;;;;;;;4.80;1.70;;;;;;;;;;6242114;28;20604;-80
2023/08/03 16:39:07;;;;;;;6.25;1.30;;;;;;;;;;6244848;28;20045;-78
2023/08/03 16:42:11;;;;;;;3.20;1.65;;;;;;;;;;6244448;28;20068;-79
2023/08/03 16:45:12;;;;;;;8.80;1.98;;;;;;;;;;6244177;28;20108;-78
2023/08/03 16:48:14;;;;;;;4.20;1.65;;;;;;;;;;6243603;28;20045;-78
2023/08/03 16:51:15;;;;;;;6.40;1.95;;;;;;;;;;6240266;28;20288;-78
2023/08/03 16:54:18;;;;;;;3.70;2.20;;;;;;;;;;6242535;28;20129;-77
2023/08/03 16:57:21;;;;;;;5.15;2.03;;;;;;;;;;6242252;28;20183;-78
2023/08/03 17:00:22;;;;;;;6.55;1.88;;;;;;;;;;6240769;28;20061;-79
2023/08/03 17:03:24;;;;;;;6.15;1.85;;;;;;;;;;6240483;28;20057;-78
2023/08/03 17:06:26;;;;;;;8.13;2.10;;;;;;;;;;6238170;28;20122;-78
2023/08/03 17:09:28;;;;;;;4.85;1.85;;;;;;;;;;6241319;28;20046;-79
2023/08/03 17:12:31;;;;;;;5.60;1.88;;;;;;;;;;6243379;28;20100;-80
2023/08/03 17:15:32;;;;;;;;;;;;;;;;;;6244987;28;20210;-79
2023/08/03 17:18:34;;;;;;;5.50;1.40;;;;;;;;;;6239285;28;20174;-79
2023/08/03 17:21:37;;;;;;;5.85;1.75;;;;;;;;;;6240884;28;20084;-80
2023/08/03 17:24:38;;;;;;;4.20;1.65;;;;;;;;;;6242129;28;20284;-79
2023/08/03 17:27:41;;;;;;;3.47;1.40;;;;;;;;;;6240542;28;20045;-78
2023/08/03 17:30:42;;;;;;;;;;;;;;;;;;6239518;28;21799;-79
2023/08/03 17:33:44;;;;;;;5.00;2.20;;;;;;;;;;6242468;28;20148;-78
2023/08/03 17:36:46;;;;;;;4.25;1.80;;;;;;;;;;6241837;28;20048;-77
2023/08/03 17:39:50;;;;;;;6.20;2.17;;;;;;;;;;6240255;28;20218;-78
2023/08/03 17:42:53;;;;;;;4.43;1.60;;;;;;;;;;6241938;28;20345;-77
2023/08/03 17:45:55;;;;;;;6.10;1.88;;;;;;;;;;6242224;28;20060;-77
2023/08/03 17:48:57;;;;;;;3.65;1.85;;;;;;;;;;6241728;28;20317;-79
2023/08/03 17:51:58;;;;;;;3.67;2.00;;;;;;;;;;6239618;28;20045;-78
2023/08/03 17:55:00;;;;;;;5.55;1.65;;;;;;;;;;6239251;28;20288;-77
2023/08/03 17:58:03;;;;;;;3.35;1.92;;;;;;;;;;6239296;28;20049;-78
2023/08/03 18:01:10;;;;;;;4.28;1.48;;;;;;;;;;6239751;28;20057;-78
2023/08/03 18:04:12;;;;;;;4.45;2.08;;;;;;;;;;6242769;28;20068;-77
2023/08/03 18:07:13;;;;;;;6.70;1.98;;;;;;;;;;6242886;28;20052;-77
2023/08/03 18:10:15;;;;;;;6.30;1.55;;;;;;;;;;6240315;28;20052;-81